Station: ELLX - 12/12/2019 21:20Z (il y a 17 minutes)
ELLX 122120Z 16011KT 120V190 8000 -SN SCT023 BKN028 02/M01 Q0989 NOSIG
Vent du 160º - 11 kt (vent de direction variable de 120º à 190º)
Visibilité: 8000 m (faible neige)
Ciel 50% couvert à 2300 pieds - Ciel 75% couvert à 2800 pieds
Température: +02ºC - Point de rosée: -01ºC - QNH: 989 hPa
Pas de changement significatif prévu dans les 2 heures qui suivent l'observation